Time;durP1;ratioP1;P1;durP2;ratioP2;P2;SDS_P1;SDS_P2;PMS_P1;PMS_P2;Temp;Humidity;BMP_temperature;BMP_pressure;BME280_temperature;BME280_humidity;BME280_pressure;Samples;Min_cycle;Max_cycle;Signal;HPM_P1;HPM_P2
2023/01/13 00:00:17;;;;;;;13.80;6.65;;;-1.40;99.90;;;;;;5113196;27;20043;-65
2023/01/13 00:02:45;;;;;;;11.50;7.50;;;-1.50;99.90;;;;;;5126958;27;20508;-65
2023/01/13 00:05:12;;;;;;;13.45;8.20;;;-1.50;99.90;;;;;;5130377;27;20047;-65
2023/01/13 00:07:40;;;;;;;15.88;8.00;;;-1.50;99.90;;;;;;5131681;27;20047;-65
2023/01/13 00:10:10;;;;;;;13.57;7.57;;;-1.50;99.90;;;;;;5121559;27;20135;-66
2023/01/13 00:12:40;;;;;;;12.93;6.63;;;-1.50;99.90;;;;;;5110737;28;20435;-66
2023/01/13 00:15:10;;;;;;;13.82;7.72;;;-1.50;99.90;;;;;;5118478;27;20128;-67
2023/01/13 00:17:38;;;;;;;16.42;7.93;;;-1.50;99.90;;;;;;5115583;27;20082;-66
2023/01/13 00:20:08;;;;;;;14.13;7.22;;;-1.50;99.90;;;;;;5112288;27;20039;-66
2023/01/13 00:22:35;;;;;;;15.52;7.97;;;-1.50;99.90;;;;;;5109077;27;20133;-64
2023/01/13 00:25:05;;;;;;;12.93;7.25;;;-1.50;99.90;;;;;;5130231;27;20114;-66
2023/01/13 00:27:33;;;;;;;13.52;7.78;;;-1.40;99.90;;;;;;5124456;27;20062;-66
2023/01/13 00:30:00;;;;;;;8.15;6.43;;;-1.50;99.90;;;;;;5126947;27;20043;-66
2023/01/13 00:32:28;;;;;;;15.25;7.65;;;-1.40;99.90;;;;;;5092865;27;20735;-66
2023/01/13 00:34:57;;;;;;;9.85;5.50;;;-1.50;99.90;;;;;;5118591;27;20120;-66
2023/01/13 00:37:25;;;;;;;12.55;7.25;;;-1.40;99.90;;;;;;5112533;27;20564;-66
2023/01/13 00:39:53;;;;;;;10.10;6.88;;;-1.40;99.90;;;;;;5109283;27;20127;-66
2023/01/13 00:45:06;;;;;;;14.70;7.13;;;-1.40;99.90;;;;;;5120037;27;20097;-66
2023/01/13 00:47:34;;;;;;;11.15;5.90;;;-1.40;99.90;;;;;;5125513;27;20134;-66
2023/01/13 00:50:03;;;;;;;11.30;7.88;;;-1.40;99.90;;;;;;5119080;27;20047;-66
2023/01/13 00:52:32;;;;;;;9.00;5.65;;;-1.30;99.90;;;;;;5132359;27;20499;-66
2023/01/13 00:55:00;;;;;;;9.82;6.22;;;-1.40;99.90;;;;;;5130585;27;20115;-66
2023/01/13 00:57:27;;;;;;;11.25;7.55;;;-1.40;99.90;;;;;;5130250;27;20051;-66
2023/01/13 00:59:55;;;;;;;10.93;7.15;;;-1.40;99.90;;;;;;5120023;27;20066;-66
2023/01/13 01:02:22;;;;;;;10.88;6.93;;;-1.40;99.90;;;;;;5111505;27;20710;-66
2023/01/13 01:04:50;;;;;;;7.32;4.88;;;-1.40;99.90;;;;;;5092717;27;20043;-66
2023/01/13 01:07:18;;;;;;;10.82;6.97;;;-1.40;99.90;;;;;;5130107;27;20157;-66
2023/01/13 01:09:46;;;;;;;9.98;6.90;;;-1.40;99.90;;;;;;5131500;27;20047;-66
2023/01/13 01:12:13;;;;;;;9.88;6.50;;;-1.40;99.90;;;;;;5131656;27;20415;-66
2023/01/13 01:14:40;;;;;;;9.70;6.05;;;-1.50;99.90;;;;;;5118718;27;20051;-65
2023/01/13 01:17:07;;;;;;;12.80;8.30;;;-1.50;99.90;;;;;;5130872;27;20039;-65
2023/01/13 01:19:37;;;;;;;14.00;8.45;;;-1.40;99.90;;;;;;5122482;28;20047;-65
2023/01/13 01:22:04;;;;;;;11.25;6.25;;;-1.40;99.90;;;;;;5109911;28;20070;-66
2023/01/13 01:24:33;;;;;;;12.85;8.15;;;-1.40;99.90;;;;;;5098168;28;20054;-65
2023/01/13 01:27:01;;;;;;;12.05;7.80;;;-1.40;99.90;;;;;;5121265;28;20125;-65
2023/01/13 01:29:28;;;;;;;13.05;7.82;;;-1.50;99.90;;;;;;5130595;27;20059;-65
2023/01/13 01:31:57;;;;;;;9.35;6.57;;;-1.40;99.90;;;;;;5106976;28;20088;-66
2023/01/13 01:34:24;;;;;;;10.25;6.78;;;-1.50;99.90;;;;;;5124434;28;20502;-65
2023/01/13 01:36:52;;;;;;;12.93;7.82;;;-1.50;99.90;;;;;;5122922;28;20048;-66
2023/01/13 01:39:19;;;;;;;13.45;7.82;;;-1.40;99.90;;;;;;5112376;28;20052;-65
2023/01/13 01:45:00;;;;;;;11.15;6.43;;;-1.40;99.90;;;;;;5110285;28;20043;-66
2023/01/13 01:47:30;;;;;;;14.57;7.50;;;-1.40;99.90;;;;;;5114239;28;20447;-66
2023/01/13 01:49:59;;;;;;;11.38;7.07;;;-1.30;99.90;;;;;;5133228;27;20075;-65
2023/01/13 01:52:31;;;;;;;10.75;6.25;;;-1.40;99.90;;;;;;5128383;27;20092;-66
2023/01/13 01:55:03;;;;;;;9.15;6.07;;;-1.40;99.90;;;;;;5111004;28;20123;-67
2023/01/13 01:57:41;;;;;;;9.27;5.70;;;-1.40;99.90;;;;;;5111022;28;20039;-66
2023/01/13 02:00:11;;;;;;;7.88;5.90;;;-1.50;99.90;;;;;;5111614;28;20685;-66
2023/01/13 02:02:44;;;;;;;18.95;5.75;;;-1.50;99.90;;;;;;5115427;28;20109;-66
2023/01/13 02:05:11;;;;;;;10.18;6.00;;;-1.50;99.90;;;;;;5122392;28;20047;-66
2023/01/13 02:07:42;;;;;;;8.57;5.50;;;-1.50;99.90;;;;;;5113141;28;20047;-66
2023/01/13 02:10:13;;;;;;;7.35;5.15;;;-1.50;99.90;;;;;;5129228;28;20134;-64
2023/01/13 02:12:44;;;;;;;12.55;5.90;;;-1.40;99.90;;;;;;5129255;28;20051;-65
2023/01/13 02:15:15;;;;;;;9.13;4.97;;;-1.40;99.90;;;;;;5128061;28;20055;-66
2023/01/13 02:18:22;;;;;;;10.38;6.65;;;-1.40;99.90;;;;;;5114397;27;20542;-66
2023/01/13 02:21:17;;;;;;;9.93;5.85;;;-1.30;99.90;;;;;;5118561;27;20087;-64
2023/01/13 02:28:00;;;;;;;7.43;4.85;;;-1.20;99.90;;;;;;5113818;27;20555;-65
2023/01/13 02:33:56;;;;;;;6.80;4.63;;;-1.20;99.90;;;;;;5120097;27;20080;-65
2023/01/13 02:36:34;;;;;;;7.88;5.03;;;-1.20;99.90;;;;;;5124473;27;20087;-65
2023/01/13 02:39:07;;;;;;;7.03;4.70;;;-1.20;99.90;;;;;;5129924;27;20142;-65
2023/01/13 02:44:33;;;;;;;9.05;5.82;;;-1.20;99.90;;;;;;5122862;27;20047;-65
2023/01/13 02:47:07;;;;;;;7.40;4.25;;;-1.10;99.90;;;;;;5126880;27;20039;-65
2023/01/13 02:49:40;;;;;;;10.65;5.18;;;-1.10;99.90;;;;;;5113455;28;20075;-66
2023/01/13 02:52:14;;;;;;;9.55;5.43;;;-1.10;99.90;;;;;;5115390;27;20539;-65
2023/01/13 02:54:47;;;;;;;6.82;4.78;;;-1.10;99.90;;;;;;5142036;27;20043;-65
2023/01/13 02:57:18;;;;;;;6.95;4.70;;;-1.10;99.90;;;;;;5128767;27;20134;-65
2023/01/13 02:59:45;;;;;;;5.82;4.72;;;-1.10;99.90;;;;;;5120929;27;20051;-65
2023/01/13 03:02:19;;;;;;;7.53;5.05;;;-1.10;99.90;;;;;;5117919;27;20051;-65
2023/01/13 03:04:54;;;;;;;8.55;5.88;;;-1.10;99.90;;;;;;5112089;27;20052;-66
2023/01/13 03:08:00;;;;;;;7.43;5.78;;;-1.00;99.90;;;;;;5127347;27;20070;-65
2023/01/13 03:10:59;;;;;;;8.85;5.70;;;-1.00;99.90;;;;;;5110510;27;20541;-65
2023/01/13 03:14:08;;;;;;;8.88;5.50;;;-1.00;99.90;;;;;;5131417;27;20057;-66
2023/01/13 03:17:05;;;;;;;10.20;5.45;;;-1.00;99.90;;;;;;5059038;28;20473;-64
2023/01/13 03:19:44;;;;;;;8.15;5.45;;;-1.00;99.90;;;;;;5112044;27;20047;-65
2023/01/13 03:22:21;;;;;;;7.28;5.07;;;-1.00;99.90;;;;;;5113063;27;20047;-66
2023/01/13 03:24:54;;;;;;;8.95;5.85;;;-0.90;99.90;;;;;;5123565;27;20149;-66
2023/01/13 03:27:29;;;;;;;8.45;5.88;;;-0.90;99.90;;;;;;5131783;27;20043;-66
2023/01/13 03:30:01;;;;;;;9.55;6.47;;;-0.90;99.90;;;;;;5118422;27;20067;-65
2023/01/13 03:32:35;;;;;;;10.82;5.45;;;-0.90;99.90;;;;;;5113145;27;20040;-65
2023/01/13 03:35:12;;;;;;;7.13;4.97;;;-0.90;99.90;;;;;;5109997;28;20044;-65
2023/01/13 03:37:44;;;;;;;9.13;5.82;;;-1.00;99.90;;;;;;5127488;27;20066;-65
2023/01/13 03:40:17;;;;;;;11.88;6.72;;;-1.00;99.90;;;;;;5125430;27;20075;-65
2023/01/13 03:44:20;;;;;;;;;;;-0.90;99.90;;;;;;5117168;27;20055;-65
2023/01/13 03:45:35;;;;;;;10.77;7.30;;;-1.00;99.90;;;;;;5110434;27;20122;-64
2023/01/13 03:48:09;;;;;;;10.95;6.20;;;-0.90;99.90;;;;;;5113907;27;20050;-67
2023/01/13 03:50:43;;;;;;;7.50;5.82;;;-0.90;99.90;;;;;;5113509;27;20047;-65
2023/01/13 03:53:16;;;;;;;9.80;6.40;;;-0.90;99.90;;;;;;5121746;27;20354;-66
2023/01/13 03:55:48;;;;;;;8.82;5.15;;;-0.90;99.90;;;;;;5145080;27;20139;-65
2023/01/13 03:58:22;;;;;;;9.25;5.78;;;-0.80;99.90;;;;;;5120948;27;20413;-65
2023/01/13 04:00:55;;;;;;;8.68;5.75;;;-0.80;99.90;;;;;;5100210;27;20419;-65
2023/01/13 04:03:29;;;;;;;7.95;5.00;;;-0.70;99.90;;;;;;5119692;27;20047;-66
2023/01/13 04:06:05;;;;;;;12.63;6.85;;;-0.70;99.90;;;;;;5109382;27;20070;-66
2023/01/13 04:08:37;;;;;;;10.95;5.68;;;-0.80;99.90;;;;;;5127621;27;20085;-66
2023/01/13 04:11:10;;;;;;;12.00;6.50;;;-0.80;99.90;;;;;;5113957;27;20039;-66
2023/01/13 04:13:40;;;;;;;10.35;7.00;;;-0.70;99.90;;;;;;5112617;27;20047;-65
2023/01/13 04:16:10;;;;;;;11.35;6.35;;;-0.70;99.90;;;;;;5124096;27;20099;-66
2023/01/13 04:18:39;;;;;;;10.63;7.32;;;-0.80;99.90;;;;;;5117075;27;20051;-65
2023/01/13 04:21:10;;;;;;;11.40;6.28;;;-0.70;99.90;;;;;;5120835;27;20043;-69
2023/01/13 04:23:38;;;;;;;13.32;5.90;;;-0.70;99.90;;;;;;5102984;27;20076;-67
2023/01/13 04:26:05;;;;;;;14.23;8.68;;;-0.70;99.90;;;;;;5112433;27;20051;-68
2023/01/13 04:28:33;;;;;;;11.68;7.05;;;-0.60;99.90;;;;;;5099917;27;20139;-68
2023/01/13 04:31:01;;;;;;;9.70;6.30;;;-0.60;99.90;;;;;;5121203;27;20364;-68
2023/01/13 04:33:28;;;;;;;11.90;6.97;;;-0.50;99.90;;;;;;5114191;27;20056;-67
2023/01/13 04:35:56;;;;;;;9.98;5.68;;;-0.50;99.90;;;;;;5117876;27;20050;-67
2023/01/13 04:38:25;;;;;;;10.70;5.53;;;-0.50;99.90;;;;;;5119172;27;20058;-67
2023/01/13 04:40:52;;;;;;;7.07;4.70;;;-0.40;99.90;;;;;;5108865;28;20166;-67
2023/01/13 04:43:19;;;;;;;9.60;6.45;;;-0.40;99.90;;;;;;5109907;28;20163;-67
2023/01/13 04:45:47;;;;;;;9.95;5.45;;;-0.40;99.90;;;;;;5076850;27;20040;-70
2023/01/13 04:48:14;;;;;;;7.80;5.07;;;-0.30;99.90;;;;;;5118823;27;20043;-74
2023/01/13 04:50:42;;;;;;;8.63;5.45;;;-0.30;99.90;;;;;;5117644;27;20050;-74
2023/01/13 04:53:10;;;;;;;11.48;6.18;;;-0.20;99.90;;;;;;5092869;27;20408;-67
2023/01/13 04:55:39;;;;;;;8.88;5.75;;;-0.20;99.90;;;;;;5123627;27;20054;-74
2023/01/13 04:58:09;;;;;;;9.00;6.18;;;-0.20;99.90;;;;;;5126212;27;20078;-68
2023/01/13 05:00:37;;;;;;;10.15;5.57;;;-0.10;99.90;;;;;;5128745;27;20059;-67
2023/01/13 05:03:05;;;;;;;6.65;4.40;;;-0.10;99.90;;;;;;5126598;27;20038;-66
2023/01/13 05:05:32;;;;;;;8.55;5.30;;;0.00;99.90;;;;;;5125168;27;20187;-70
2023/01/13 05:08:00;;;;;;;7.25;4.97;;;0.00;99.90;;;;;;5125839;27;20047;-68
2023/01/13 05:10:28;;;;;;;8.75;5.88;;;0.10;99.90;;;;;;5125236;27;20130;-75
2023/01/13 05:18:31;;;;;;;7.35;5.25;;;0.30;99.90;;;;;;5102990;28;20764;-72
2023/01/13 05:20:59;;;;;;;8.40;4.38;;;0.30;99.90;;;;;;5124907;28;20135;-68
2023/01/13 05:26:13;;;;;;;7.65;5.03;;;0.50;99.90;;;;;;5122437;27;20043;-66
2023/01/13 05:28:42;;;;;;;7.85;3.25;;;0.50;99.90;;;;;;5108548;28;20146;-69
2023/01/13 05:31:10;;;;;;;6.68;4.45;;;0.50;99.90;;;;;;5122798;28;20047;-69
2023/01/13 05:33:38;;;;;;;6.20;4.85;;;0.60;99.90;;;;;;5122811;28;20047;-68
2023/01/13 05:36:06;;;;;;;10.55;5.78;;;0.60;99.90;;;;;;5122303;28;20043;-68
2023/01/13 05:38:33;;;;;;;7.43;4.85;;;0.60;99.90;;;;;;5125654;28;20039;-67
2023/01/13 05:43:47;;;;;;;9.23;4.60;;;0.70;99.90;;;;;;5121497;28;20050;-69
2023/01/13 05:46:16;;;;;;;5.28;4.45;;;0.80;99.90;;;;;;5102185;28;20513;-69
2023/01/13 05:48:44;;;;;;;8.63;5.28;;;0.80;99.90;;;;;;5124859;28;20049;-70
2023/01/13 05:51:13;;;;;;;7.78;4.90;;;0.80;99.90;;;;;;5106263;28;20387;-68
2023/01/13 05:53:41;;;;;;;7.63;4.63;;;0.90;99.90;;;;;;5120180;27;20047;-74
2023/01/13 05:56:11;;;;;;;5.45;3.58;;;0.90;99.90;;;;;;5127728;27;20039;-70
2023/01/13 05:58:39;;;;;;;5.65;3.95;;;0.90;99.90;;;;;;5095411;27;20215;-74
2023/01/13 06:01:09;;;;;;;6.40;4.32;;;1.00;99.90;;;;;;5128228;27;20041;-75
2023/01/13 06:03:38;;;;;;;7.25;4.78;;;1.00;99.90;;;;;;5122225;27;20596;-68
2023/01/13 06:06:07;;;;;;;7.75;4.55;;;1.10;99.90;;;;;;5132160;27;20070;-68
2023/01/13 06:08:35;;;;;;;6.13;3.80;;;1.10;99.90;;;;;;5111962;27;20116;-68
2023/01/13 06:11:02;;;;;;;4.63;3.67;;;1.10;99.90;;;;;;5104869;27;20043;-67
2023/01/13 06:13:31;;;;;;;9.27;4.38;;;1.10;99.90;;;;;;5111656;27;20075;-68
2023/01/13 06:16:00;;;;;;;9.20;4.97;;;1.20;99.90;;;;;;5122637;27;20046;-68
2023/01/13 06:18:29;;;;;;;6.50;4.50;;;1.20;99.90;;;;;;5128261;27;20122;-68
2023/01/13 06:20:59;;;;;;;4.53;3.58;;;1.20;99.90;;;;;;5105935;27;20103;-68
2023/01/13 06:23:27;;;;;;;6.63;4.65;;;1.20;99.90;;;;;;5119631;27;20047;-67
2023/01/13 06:26:05;;;;;;;7.47;4.70;;;1.20;99.90;;;;;;5116549;27;20215;-69
2023/01/13 06:28:33;;;;;;;10.25;5.85;;;1.30;99.90;;;;;;5112147;28;20054;-67
2023/01/13 06:31:06;;;;;;;7.85;5.38;;;1.30;99.90;;;;;;5131761;27;20039;-68
2023/01/13 06:33:37;;;;;;;;;;;1.30;99.90;;;;;;5093939;28;20302;-70
2023/01/13 06:36:12;;;;;;;8.30;5.00;;;1.40;99.90;;;;;;5113396;28;19924;-69
2023/01/13 06:38:45;;;;;;;7.90;4.75;;;1.30;99.90;;;;;;5114970;27;20054;-67
2023/01/13 06:41:12;;;;;;;9.48;6.15;;;1.40;99.90;;;;;;5112507;28;20055;-68
2023/01/13 06:43:39;;;;;;;11.15;5.63;;;1.40;99.90;;;;;;5112698;28;20075;-68
2023/01/13 06:46:07;;;;;;;6.30;4.90;;;1.40;99.90;;;;;;5095666;28;20051;-68
2023/01/13 06:48:35;;;;;;;7.97;5.28;;;1.40;99.90;;;;;;5117507;27;20069;-68
2023/01/13 06:51:03;;;;;;;5.80;3.78;;;1.40;99.90;;;;;;5134187;27;20066;-68
2023/01/13 06:53:31;;;;;;;6.20;4.43;;;1.50;99.90;;;;;;5134212;27;20057;-68
2023/01/13 06:55:59;;;;;;;10.48;5.78;;;1.40;99.90;;;;;;5134275;27;20110;-68
2023/01/13 06:58:26;;;;;;;8.10;5.65;;;1.40;99.90;;;;;;5122042;27;20070;-68
2023/01/13 07:00:53;;;;;;;8.52;5.15;;;1.40;99.90;;;;;;5122093;27;20146;-68
2023/01/13 07:03:21;;;;;;;8.00;5.35;;;1.50;99.90;;;;;;5108084;27;20400;-68
2023/01/13 07:05:55;;;;;;;9.27;5.82;;;1.40;99.90;;;;;;5113216;27;20130;-68
2023/01/13 07:08:22;;;;;;;8.05;4.75;;;1.50;99.90;;;;;;5127339;27;20047;-69
2023/01/13 07:10:50;;;;;;;9.52;4.93;;;1.50;99.90;;;;;;5104549;27;20144;-70
2023/01/13 07:16:11;;;;;;;7.25;5.53;;;1.50;99.90;;;;;;5088942;27;20510;-69
2023/01/13 07:18:38;;;;;;;6.68;4.80;;;1.60;99.90;;;;;;5114648;27;20047;-70
2023/01/13 07:21:09;;;;;;;10.23;5.35;;;1.60;99.90;;;;;;5126951;27;20487;-69
2023/01/13 07:23:39;;;;;;;9.73;4.72;;;1.60;99.90;;;;;;5120311;27;20630;-69
2023/01/13 07:26:08;;;;;;;7.68;5.13;;;1.60;99.90;;;;;;5127394;27;20043;-68
2023/01/13 07:28:36;;;;;;;8.48;5.45;;;1.60;99.90;;;;;;5095916;27;20047;-70
2023/01/13 07:31:04;;;;;;;7.57;4.75;;;1.60;99.90;;;;;;5123726;27;20055;-68
2023/01/13 07:33:32;;;;;;;6.82;4.15;;;1.70;99.90;;;;;;5112732;28;20054;-70
2023/01/13 07:36:02;;;;;;;7.93;5.05;;;1.70;99.90;;;;;;5123763;27;20134;-69
2023/01/13 07:38:32;;;;;;;5.88;4.55;;;1.80;99.90;;;;;;5117464;27;20130;-69
2023/01/13 07:43:30;;;;;;;7.95;5.05;;;1.80;99.90;;;;;;5119672;27;20116;-69
2023/01/13 07:43:48;;;;;;;9.57;4.68;;;1.90;99.90;;;;;;5125957;27;20039;-70
2023/01/13 07:46:16;;;;;;;9.10;5.05;;;1.90;99.90;;;;;;5112688;27;20046;-69
2023/01/13 07:48:43;;;;;;;10.18;5.07;;;1.90;99.90;;;;;;5123149;27;20144;-69
2023/01/13 07:51:12;;;;;;;5.60;4.18;;;1.90;99.90;;;;;;5128210;27;20055;-69
2023/01/13 07:53:41;;;;;;;7.72;5.22;;;1.90;99.90;;;;;;5122615;27;20047;-70
2023/01/13 07:56:08;;;;;;;5.05;4.05;;;2.00;99.90;;;;;;5132472;27;20075;-70
2023/01/13 07:58:37;;;;;;;7.30;4.95;;;2.00;99.90;;;;;;5131950;27;20047;-70
2023/01/13 08:01:08;;;;;;;6.70;4.32;;;1.90;99.90;;;;;;5098797;27;20047;-68
2023/01/13 08:03:36;;;;;;;7.60;4.57;;;1.90;99.90;;;;;;5129700;27;20415;-71
2023/01/13 08:06:03;;;;;;;7.45;4.78;;;1.90;99.90;;;;;;5100720;28;20058;-70
2023/01/13 08:08:31;;;;;;;9.20;4.75;;;1.90;99.90;;;;;;5100172;27;20419;-68
2023/01/13 08:11:01;;;;;;;8.20;5.15;;;1.90;99.90;;;;;;5111737;27;20043;-68
2023/01/13 08:13:29;;;;;;;10.25;4.78;;;1.90;99.90;;;;;;5113748;27;20047;-71
2023/01/13 08:16:01;;;;;;;5.60;3.90;;;1.90;99.90;;;;;;5110992;27;20512;-71
2023/01/13 08:18:29;;;;;;;5.15;4.28;;;1.90;99.90;;;;;;5112108;28;20051;-69
2023/01/13 08:21:01;;;;;;;9.05;5.22;;;1.90;99.90;;;;;;5119587;27;20130;-73
2023/01/13 08:23:29;;;;;;;8.43;4.90;;;2.00;99.90;;;;;;5111689;27;20054;-68
2023/01/13 08:26:02;;;;;;;9.00;5.80;;;2.00;99.90;;;;;;5120973;27;20059;-67
2023/01/13 08:28:30;;;;;;;9.77;6.15;;;2.00;99.90;;;;;;5132785;27;20051;-70
2023/01/13 08:31:00;;;;;;;6.85;4.88;;;2.10;99.90;;;;;;5121265;27;20043;-67
2023/01/13 08:33:28;;;;;;;8.82;5.18;;;2.20;99.90;;;;;;5092544;28;20515;-68
2023/01/13 08:35:55;;;;;;;8.18;5.43;;;2.20;99.90;;;;;;5093490;28;20558;-68
2023/01/13 08:38:24;;;;;;;6.05;4.32;;;2.40;99.90;;;;;;5111765;27;20075;-71
2023/01/13 08:40:51;;;;;;;6.88;4.82;;;2.40;99.90;;;;;;5116018;27;20562;-69
2023/01/13 08:43:20;;;;;;;9.38;5.80;;;2.50;99.90;;;;;;5109941;28;20051;-69
2023/01/13 08:45:57;;;;;;;9.43;5.97;;;2.50;99.90;;;;;;5092929;28;20142;-69
2023/01/13 08:48:25;;;;;;;5.32;4.50;;;2.50;99.90;;;;;;5122265;27;20438;-69
2023/01/13 08:50:53;;;;;;;8.85;5.50;;;2.40;99.90;;;;;;5101418;28;20147;-69
2023/01/13 08:53:21;;;;;;;8.52;5.35;;;2.50;99.90;;;;;;5120076;27;20051;-69
2023/01/13 08:55:48;;;;;;;9.20;6.20;;;2.50;99.90;;;;;;5109318;27;20062;-68
2023/01/13 08:58:15;;;;;;;5.47;4.10;;;2.50;99.90;;;;;;5107951;27;20155;-68
2023/01/13 09:00:45;;;;;;;8.70;5.40;;;2.50;99.90;;;;;;5124804;27;20043;-68
2023/01/13 09:03:12;;;;;;;10.00;5.70;;;2.50;99.90;;;;;;5102451;27;20150;-68
2023/01/13 09:05:40;;;;;;;7.90;5.40;;;2.60;99.90;;;;;;5124936;27;20093;-68
2023/01/13 09:08:08;;;;;;;9.40;5.60;;;2.70;99.90;;;;;;5126737;27;20533;-68
2023/01/13 09:10:40;;;;;;;10.02;6.57;;;2.70;99.90;;;;;;5110130;28;20050;-68
2023/01/13 09:13:12;;;;;;;7.25;4.70;;;2.80;99.90;;;;;;5110669;28;20054;-68
2023/01/13 09:15:47;;;;;;;6.80;4.85;;;2.90;99.90;;;;;;5092891;28;20430;-69
2023/01/13 09:18:19;;;;;;;12.43;6.10;;;2.90;99.90;;;;;;5124782;28;20111;-69
2023/01/13 09:21:01;;;;;;;7.17;5.20;;;3.00;99.90;;;;;;5135611;27;20051;-73
2023/01/13 09:23:44;;;;;;;;;;;3.00;99.90;;;;;;5097998;28;20056;-74
2023/01/13 09:26:36;;;;;;;8.43;5.35;;;3.00;99.90;;;;;;5093990;28;19924;-74
2023/01/13 09:29:12;;;;;;;8.75;4.65;;;3.00;99.90;;;;;;5082978;28;20059;-76
2023/01/13 09:31:41;;;;;;;7.85;5.55;;;3.00;99.90;;;;;;5092171;28;20139;-73
2023/01/13 09:36:57;;;;;;;6.75;5.60;;;2.90;99.90;;;;;;5059277;28;20056;-74
2023/01/13 09:39:25;;;;;;;9.55;5.13;;;2.90;99.90;;;;;;5102960;28;20627;-75
2023/01/13 09:44:50;;;;;;;8.55;4.85;;;2.90;99.90;;;;;;5105537;28;20040;-75
2023/01/13 09:47:26;;;;;;;9.00;5.40;;;2.90;99.90;;;;;;5102076;28;20051;-70
2023/01/13 09:49:57;;;;;;;10.95;4.97;;;;;;;;;;5089424;28;20051;-68
2023/01/13 09:52:27;;;;;;;10.48;5.50;;;2.90;99.90;;;;;;5112217;28;20117;-70
2023/01/13 09:55:03;;;;;;;10.13;5.53;;;2.90;99.90;;;;;;5110173;28;20070;-68
2023/01/13 09:57:38;;;;;;;11.02;6.65;;;2.90;99.90;;;;;;5095501;28;20450;-68
2023/01/13 10:00:12;;;;;;;7.30;5.68;;;2.90;99.90;;;;;;5114473;28;20146;-69
2023/01/13 10:03:00;;;;;;;8.90;6.00;;;2.90;99.90;;;;;;5126037;27;20045;-68
2023/01/13 10:05:37;;;;;;;8.90;6.40;;;2.90;99.90;;;;;;5113944;28;20047;-70
2023/01/13 10:08:13;;;;;;;10.45;5.72;;;3.00;99.90;;;;;;5116562;27;20100;-68
2023/01/13 10:10:45;;;;;;;11.30;6.68;;;3.00;99.90;;;;;;5119249;27;20043;-69
2023/01/13 10:13:19;;;;;;;11.10;6.43;;;3.00;99.90;;;;;;5131471;27;20055;-68
2023/01/13 10:16:03;;;;;;;9.75;6.28;;;3.00;99.90;;;;;;5132408;27;20045;-70
2023/01/13 10:18:45;;;;;;;8.15;5.63;;;3.00;99.90;;;;;;5131921;27;20142;-68
2023/01/13 10:21:43;;;;;;;11.73;5.72;;;3.10;99.90;;;;;;5111205;27;20100;-70
2023/01/13 10:24:21;;;;;;;12.63;6.03;;;3.10;99.90;;;;;;5115335;27;20527;-67
2023/01/13 10:27:01;;;;;;;11.10;6.18;;;3.10;99.90;;;;;;5116715;27;20056;-67
2023/01/13 10:29:30;;;;;;;11.32;5.65;;;3.10;99.90;;;;;;5127665;27;20051;-67
2023/01/13 10:32:00;;;;;;;8.20;5.45;;;3.10;99.90;;;;;;5119298;27;20051;-69
2023/01/13 10:34:29;;;;;;;11.10;6.00;;;3.10;99.90;;;;;;5123281;27;20079;-69
2023/01/13 10:37:01;;;;;;;10.40;6.72;;;3.10;99.90;;;;;;5122623;27;20373;-76
2023/01/13 10:39:40;;;;;;;13.20;6.67;;;3.10;99.90;;;;;;5115010;27;20053;-75
2023/01/13 10:42:14;;;;;;;12.45;6.07;;;3.00;99.90;;;;;;5101397;27;20419;-75
2023/01/13 10:44:51;;;;;;;10.52;6.53;;;3.00;99.90;;;;;;5120396;27;20127;-75
2023/01/13 10:47:26;;;;;;;8.95;6.13;;;3.10;99.90;;;;;;5126065;27;20107;-77
2023/01/13 10:50:18;;;;;;;11.95;6.32;;;3.10;99.90;;;;;;5124850;27;20035;-73
2023/01/13 10:53:00;;;;;;;10.70;6.47;;;3.10;99.90;;;;;;5121953;27;20503;-75
2023/01/13 10:55:32;;;;;;;9.90;6.47;;;3.10;99.90;;;;;;5114445;27;20043;-73
2023/01/13 10:58:13;;;;;;;13.13;6.53;;;3.10;99.90;;;;;;5116657;27;20073;-75
2023/01/13 11:00:41;;;;;;;16.30;8.07;;;3.10;99.90;;;;;;5122864;27;20718;-77
2023/01/13 11:03:20;;;;;;;12.40;7.78;;;3.10;99.90;;;;;;5092965;27;20047;-68
2023/01/13 11:05:55;;;;;;;10.85;5.97;;;3.10;99.90;;;;;;5118886;27;20383;-76
2023/01/13 11:08:25;;;;;;;12.32;6.78;;;3.10;99.90;;;;;;5108864;27;20146;-75
2023/01/13 11:10:59;;;;;;;9.93;7.05;;;3.10;99.90;;;;;;5130800;27;20054;-75
2023/01/13 11:13:33;;;;;;;13.38;6.40;;;3.10;99.90;;;;;;5124484;27;20039;-68
2023/01/13 11:16:08;;;;;;;25.55;10.73;;;3.20;99.90;;;;;;5120392;27;20043;-75
2023/01/13 11:18:50;;;;;;;11.10;6.85;;;3.20;99.90;;;;;;5120973;27;20054;-74
2023/01/13 11:21:33;;;;;;;13.30;7.03;;;3.20;99.90;;;;;;5122916;27;20070;-76
2023/01/13 11:24:10;;;;;;;10.57;6.63;;;3.20;99.90;;;;;;5120525;27;20126;-75
2023/01/13 11:26:45;;;;;;;12.48;7.35;;;3.30;99.90;;;;;;5122089;27;20137;-75
2023/01/13 11:29:20;;;;;;;15.15;7.65;;;3.30;99.90;;;;;;5107974;27;20048;-74
2023/01/13 11:31:52;;;;;;;11.30;7.10;;;3.30;99.90;;;;;;5107065;27;20051;-74
2023/01/13 11:34:30;;;;;;;15.02;6.38;;;3.30;99.90;;;;;;5123070;27;20050;-76
2023/01/13 11:37:01;;;;;;;12.18;7.22;;;3.30;99.90;;;;;;5116246;27;20712;-74
2023/01/13 11:39:43;;;;;;;12.48;6.45;;;3.40;99.90;;;;;;5111046;27;20086;-73
2023/01/13 11:42:22;;;;;;;11.07;7.55;;;3.40;99.90;;;;;;5114206;27;20498;-76
2023/01/13 11:45:01;;;;;;;11.05;6.45;;;3.30;99.90;;;;;;5095567;27;20442;-76
2023/01/13 11:47:33;;;;;;;14.65;6.78;;;3.30;99.90;;;;;;5132210;27;20039;-74
2023/01/13 11:50:02;;;;;;;9.93;6.05;;;3.30;99.90;;;;;;5131086;27;20041;-74
2023/01/13 11:53:00;;;;;;;10.02;6.78;;;3.40;99.90;;;;;;5108021;27;20058;-74
2023/01/13 11:55:35;;;;;;;9.82;6.20;;;3.40;99.90;;;;;;5120587;27;20058;-74
2023/01/13 11:58:34;;;;;;;13.77;7.05;;;3.40;99.90;;;;;;5117704;27;20219;-74
2023/01/13 12:01:27;;;;;;;14.32;5.82;;;3.40;99.90;;;;;;5114831;27;20051;-75
2023/01/13 12:04:17;;;;;;;9.45;6.43;;;3.40;99.90;;;;;;5128655;27;20820;-74
2023/01/13 12:06:46;;;;;;;11.18;6.07;;;3.40;99.90;;;;;;5122537;27;20457;-74
2023/01/13 12:09:33;;;;;;;10.38;6.68;;;3.40;99.90;;;;;;5120651;27;20617;-74
2023/01/13 12:12:21;;;;;;;8.00;5.50;;;3.40;99.90;;;;;;5115596;27;20450;-76
2023/01/13 12:15:38;;;;;;;8.65;6.43;;;3.50;99.90;;;;;;5124579;27;20047;-76
2023/01/13 12:18:33;;;;;;;9.38;6.75;;;3.40;99.90;;;;;;5115903;27;20055;-77
2023/01/13 12:21:20;;;;;;;7.57;6.10;;;3.40;99.90;;;;;;5126653;27;20465;-73
2023/01/13 12:24:00;;;;;;;9.23;6.05;;;3.40;99.90;;;;;;5119728;27;20104;-77
2023/01/13 12:26:35;;;;;;;8.13;6.30;;;3.40;99.90;;;;;;5109799;27;20491;-76
2023/01/13 12:29:06;;;;;;;9.95;5.68;;;3.40;99.90;;;;;;5123750;27;20547;-75
2023/01/13 12:31:37;;;;;;;11.00;6.22;;;3.30;99.90;;;;;;5128218;27;20133;-74
2023/01/13 12:34:35;;;;;;;11.73;6.50;;;3.30;99.90;;;;;;5127655;27;20114;-75
2023/01/13 12:37:13;;;;;;;8.20;6.40;;;3.30;99.90;;;;;;5128407;27;20395;-69
2023/01/13 12:39:56;;;;;;;11.13;6.35;;;3.30;99.90;;;;;;5130426;27;20058;-67
2023/01/13 12:45:30;;;;;;;9.05;5.53;;;3.20;99.90;;;;;;5129065;27;20115;-74
2023/01/13 12:48:00;;;;;;;9.88;6.22;;;3.20;99.90;;;;;;5129718;27;20134;-74
2023/01/13 12:50:59;;;;;;;10.13;5.97;;;3.20;99.90;;;;;;5101637;27;20502;-73
2023/01/13 12:53:44;;;;;;;7.47;5.80;;;3.20;99.90;;;;;;5119054;27;20119;-69
2023/01/13 12:56:40;;;;;;;10.52;6.43;;;3.20;99.90;;;;;;5123879;27;20149;-75
2023/01/13 12:59:37;;;;;;;12.00;6.25;;;3.20;99.90;;;;;;5109981;27;20411;-73
2023/01/13 13:02:35;;;;;;;11.02;6.82;;;3.20;99.90;;;;;;5081229;27;20050;-73
2023/01/13 13:05:39;;;;;;;13.05;7.60;;;3.20;99.90;;;;;;5116855;27;20396;-74
2023/01/13 13:08:19;;;;;;;10.52;6.75;;;3.20;99.90;;;;;;5115992;27;20586;-72
2023/01/13 13:11:02;;;;;;;10.85;6.40;;;3.20;99.90;;;;;;5096840;27;20051;-77
2023/01/13 13:13:44;;;;;;;10.63;7.75;;;3.10;99.90;;;;;;5098629;27;20040;-68
2023/01/13 13:16:50;;;;;;;11.10;7.00;;;3.10;99.90;;;;;;5113559;28;20058;-69
2023/01/13 13:19:48;;;;;;;12.55;7.63;;;3.10;99.90;;;;;;5122211;27;20147;-73
2023/01/13 13:22:44;;;;;;;14.55;7.45;;;3.10;99.90;;;;;;5112516;28;20088;-73
2023/01/13 13:25:24;;;;;;;16.35;8.95;;;3.10;99.90;;;;;;5116900;28;20035;-75
2023/01/13 13:28:13;;;;;;;14.30;8.10;;;3.10;99.90;;;;;;5117864;28;20565;-74
2023/01/13 13:31:11;;;;;;;12.88;7.80;;;3.10;99.90;;;;;;5120154;27;20096;-68
2023/01/13 13:33:52;;;;;;;16.70;9.27;;;3.10;99.90;;;;;;5115950;27;20477;-68
2023/01/13 13:36:53;;;;;;;17.77;9.10;;;3.10;99.90;;;;;;5119075;27;20042;-70
2023/01/13 13:48:25;;;;;;;16.73;8.85;;;3.10;99.90;;;;;;5117742;27;20333;-69
2023/01/13 13:50:56;;;;;;;20.73;9.85;;;3.00;99.90;;;;;;5131994;27;20052;-71
2023/01/13 13:53:28;;;;;;;15.82;9.35;;;3.10;99.90;;;;;;5124184;27;20043;-70
2023/01/13 13:56:01;;;;;;;18.25;10.02;;;3.10;99.90;;;;;;5122933;27;20116;-69
2023/01/13 13:58:34;;;;;;;16.55;9.85;;;3.10;99.90;;;;;;5121758;28;20039;-74
2023/01/13 14:01:04;;;;;;;16.73;8.73;;;3.10;99.90;;;;;;5125436;28;20395;-74
2023/01/13 14:03:35;;;;;;;15.27;8.77;;;3.10;99.90;;;;;;5126528;27;20035;-74
2023/01/13 14:06:06;;;;;;;17.13;8.93;;;3.10;99.90;;;;;;5123984;27;20118;-74
2023/01/13 14:08:37;;;;;;;14.45;8.90;;;3.10;99.90;;;;;;5121535;27;20054;-74
2023/01/13 14:11:26;;;;;;;12.65;8.30;;;3.10;99.90;;;;;;5112930;28;20118;-74